createdAt,value
2019-01-17T00:00:23.242Z,49.53
2019-01-17T00:03:31.982Z,48.57
2019-01-17T00:06:19.692Z,46.50
2019-01-17T00:09:07.772Z,49.10
2019-01-17T00:11:47.456Z,47.13
2019-01-17T00:14:30.334Z,46.27
2019-01-17T00:17:31.418Z,42.80
2019-01-17T00:20:19.023Z,39.43
2019-01-17T00:23:05.807Z,40.67
2019-01-17T00:25:44.143Z,41.53
2019-01-17T00:28:27.463Z,43.17
2019-01-17T00:31:16.186Z,36.23
2019-01-17T00:34:11.142Z,35.00
2019-01-17T00:36:55.790Z,41.30
2019-01-17T00:39:43.431Z,37.40
2019-01-17T00:42:50.354Z,36.07
2019-01-17T00:45:57.274Z,36.50
2019-01-17T00:48:54.645Z,35.03
2019-01-17T00:51:42.107Z,36.03
2019-01-17T00:54:20.694Z,36.80
2019-01-17T00:57:20.519Z,39.00
2019-01-17T01:00:12.447Z,38.23
2019-01-17T01:02:55.881Z,40.30
2019-01-17T01:05:53.602Z,39.73
2019-01-17T01:08:43.574Z,39.83
2019-01-17T01:11:31.284Z,38.50
2019-01-17T01:14:11.728Z,40.47
2019-01-17T01:17:05.306Z,40.83
2019-01-17T01:20:12.638Z,37.77
2019-01-17T01:23:00.515Z,38.23
2019-01-17T01:25:51.647Z,38.37
2019-01-17T01:28:58.807Z,34.93
2019-01-17T01:31:39.919Z,31.30
2019-01-17T01:34:37.690Z,29.57
2019-01-17T01:37:28.906Z,35.50
2019-01-17T01:40:09.047Z,35.83
2019-01-17T01:43:04.132Z,34.27
2019-01-17T01:46:02.191Z,28.90
2019-01-17T01:48:50.019Z,30.73
2019-01-17T01:51:28.418Z,31.83
2019-01-17T01:53:58.633Z,27.93
2019-01-17T01:56:28.259Z,19.83
2019-01-17T01:58:58.154Z,25.93
2019-01-17T02:01:27.780Z,27.43
2019-01-17T02:03:57.403Z,22.87
2019-01-17T02:06:27.271Z,27.37
2019-01-17T02:08:56.974Z,26.27
2019-01-17T02:11:26.675Z,18.13
2019-01-17T02:13:56.747Z,22.63
2019-01-17T02:16:26.371Z,24.60
2019-01-17T02:18:56.551Z,25.13
2019-01-17T02:21:26.948Z,24.57
2019-01-17T02:23:56.576Z,25.00
2019-01-17T02:26:26.510Z,24.10
2019-01-17T02:28:56.229Z,26.40
2019-01-17T02:31:25.841Z,25.53
2019-01-17T02:33:56.059Z,24.47
2019-01-17T02:36:25.732Z,20.93
2019-01-17T02:38:55.678Z,21.30
2019-01-17T02:41:25.364Z,22.17
2019-01-17T02:43:54.976Z,21.67
2019-01-17T02:46:24.665Z,21.43
2019-01-17T02:48:54.611Z,21.03
2019-01-17T02:51:25.368Z,23.90
2019-01-17T02:53:54.993Z,22.60
2019-01-17T02:56:24.681Z,19.97
2019-01-17T02:58:54.376Z,22.13
2019-01-17T03:01:24.522Z,18.27
2019-01-17T03:03:54.150Z,18.57
2019-01-17T03:06:23.866Z,17.47
2019-01-17T03:08:53.497Z,19.97
2019-01-17T03:11:24.465Z,17.87
2019-01-17T03:13:54.178Z,15.73
2019-01-17T03:16:23.866Z,15.67
2019-01-17T03:18:53.561Z,15.83
2019-01-17T03:21:24.297Z,14.83
2019-01-17T03:23:53.982Z,16.67
2019-01-17T03:26:23.872Z,14.93
2019-01-17T03:28:53.556Z,15.13
2019-01-17T03:31:23.423Z,13.83
2019-01-17T03:33:53.037Z,13.57
2019-01-17T03:36:22.732Z,13.10
2019-01-17T03:38:52.349Z,11.97
2019-01-17T03:41:22.079Z,11.93
2019-01-17T03:43:51.793Z,12.03
2019-01-17T03:46:21.405Z,10.57
2019-01-17T03:48:51.084Z,13.20
2019-01-17T03:51:20.715Z,12.93
2019-01-17T03:53:50.327Z,13.30
2019-01-17T03:56:21.728Z,10.77
2019-01-17T03:58:51.329Z,9.70
2019-01-17T04:01:21.273Z,8.47
2019-01-17T04:03:50.959Z,8.13
2019-01-17T04:06:20.573Z,9.20
2019-01-17T04:08:50.257Z,8.80
2019-01-17T04:11:19.861Z,6.63
2019-01-17T04:13:49.757Z,8.20
2019-01-17T04:16:19.369Z,9.40
2019-01-17T04:18:48.969Z,8.90
2019-01-17T04:21:19.455Z,9.47
2019-01-17T04:23:49.113Z,10.53
2019-01-17T04:26:18.728Z,10.40
2019-01-17T04:28:48.648Z,11.10
2019-01-17T04:31:18.340Z,11.60
2019-01-17T04:33:48.098Z,8.63
2019-01-17T04:36:18.058Z,10.13
2019-01-17T04:38:47.657Z,7.23
2019-01-17T04:41:17.276Z,8.77
2019-01-17T04:43:47.950Z,8.90
2019-01-17T04:46:17.556Z,7.50
2019-01-17T04:48:47.154Z,8.13
2019-01-17T04:51:17.063Z,9.73
2019-01-17T04:53:47.134Z,8.77
2019-01-17T04:56:17.104Z,9.97
2019-01-17T04:58:46.715Z,8.40
2019-01-17T05:01:16.700Z,8.57
2019-01-17T05:03:46.313Z,7.10
2019-01-17T05:06:15.920Z,8.97
2019-01-17T05:08:45.527Z,6.47
2019-01-17T05:11:15.225Z,7.93
2019-01-17T05:13:44.864Z,6.83
2019-01-17T05:16:14.482Z,9.03
2019-01-17T05:18:44.084Z,6.20
2019-01-17T05:21:13.680Z,8.60
2019-01-17T05:23:43.290Z,8.87
2019-01-17T05:26:13.212Z,7.67
2019-01-17T05:28:42.820Z,8.13
2019-01-17T05:31:12.426Z,9.83
2019-01-17T05:33:42.025Z,9.40
2019-01-17T05:36:11.778Z,13.53
2019-01-17T05:38:42.612Z,11.80
2019-01-17T05:41:12.468Z,9.50
2019-01-17T05:43:42.441Z,10.57
2019-01-17T05:46:13.019Z,14.17
2019-01-17T05:48:42.645Z,16.93
2019-01-17T05:51:12.594Z,12.30
2019-01-17T05:53:42.212Z,9.60
2019-01-17T05:56:11.820Z,17.03
2019-01-17T05:58:41.432Z,13.73
2019-01-17T06:01:11.041Z,13.17
2019-01-17T06:03:40.768Z,12.60
2019-01-17T06:06:10.454Z,13.90
2019-01-17T06:08:40.137Z,10.20
2019-01-17T06:11:09.890Z,14.53
2019-01-17T06:13:39.689Z,15.47
2019-01-17T06:16:09.493Z,13.23
2019-01-17T06:18:39.496Z,14.43
2019-01-17T06:21:09.113Z,12.73
2019-01-17T06:23:38.792Z,10.87
2019-01-17T06:26:08.812Z,13.63
2019-01-17T06:28:38.502Z,15.57
2019-01-17T06:31:08.485Z,17.43
2019-01-17T06:33:38.214Z,14.73
2019-01-17T06:36:07.921Z,13.93
2019-01-17T06:38:37.529Z,13.97
2019-01-17T06:41:07.337Z,14.47
2019-01-17T06:43:36.954Z,17.17
2019-01-17T06:46:06.900Z,15.87
2019-01-17T06:48:36.781Z,12.83
2019-01-17T06:51:06.475Z,13.23
2019-01-17T06:53:36.077Z,12.63
2019-01-17T06:56:06.301Z,13.60
2019-01-17T06:58:36.885Z,14.73
2019-01-17T07:01:06.648Z,16.47
2019-01-17T07:03:36.256Z,15.33
2019-01-17T07:06:05.877Z,13.60
2019-01-17T07:08:35.485Z,19.10
2019-01-17T07:11:05.485Z,12.83
2019-01-17T07:13:35.097Z,15.87
2019-01-17T07:16:04.900Z,19.63
2019-01-17T07:18:34.556Z,12.53
2019-01-17T07:21:04.358Z,18.10
2019-01-17T07:23:33.952Z,18.33
2019-01-17T07:26:03.944Z,13.87
2019-01-17T07:28:33.608Z,17.23
2019-01-17T07:31:03.238Z,17.43
2019-01-17T07:33:32.849Z,14.20
2019-01-17T07:36:02.722Z,13.40
2019-01-17T07:38:32.367Z,17.80
2019-01-17T07:41:01.997Z,14.40
2019-01-17T07:43:31.608Z,15.77
2019-01-17T07:46:01.242Z,14.10
2019-01-17T07:48:30.960Z,12.57
2019-01-17T07:51:01.045Z,11.70
2019-01-17T07:53:30.797Z,15.07
2019-01-17T07:56:00.760Z,17.10
2019-01-17T07:58:30.538Z,16.50
2019-01-17T08:01:00.150Z,16.37
2019-01-17T08:03:30.073Z,17.30
2019-01-17T08:05:59.964Z,15.17
2019-01-17T08:08:29.581Z,14.80
2019-01-17T08:10:59.581Z,16.37
2019-01-17T08:13:29.270Z,14.27
2019-01-17T08:15:59.046Z,20.27
2019-01-17T08:18:28.672Z,14.67
2019-01-17T08:20:58.326Z,16.13
2019-01-17T08:23:34.314Z,14.63
2019-01-17T08:25:59.510Z,19.60
2019-01-17T08:28:29.228Z,13.73
2019-01-17T08:30:58.912Z,13.87
2019-01-17T08:33:28.623Z,16.30
2019-01-17T08:35:58.388Z,17.40
2019-01-17T08:38:28.000Z,15.77
2019-01-17T08:40:57.874Z,14.57
2019-01-17T08:43:27.490Z,16.87
2019-01-17T08:45:57.174Z,12.77
2019-01-17T08:48:26.817Z,15.30
2019-01-17T08:50:56.438Z,11.70
2019-01-17T08:53:26.140Z,17.30
2019-01-17T08:56:00.741Z,17.53
2019-01-17T08:58:27.077Z,10.40
2019-01-17T09:00:56.698Z,13.00
2019-01-17T09:03:26.518Z,13.80
2019-01-17T09:05:56.166Z,15.40
2019-01-17T09:08:25.968Z,15.37
2019-01-17T09:10:55.579Z,13.87
2019-01-17T09:13:25.344Z,14.47
2019-01-17T09:15:54.944Z,17.63
2019-01-17T09:18:24.594Z,15.43
2019-01-17T09:20:54.269Z,14.37
2019-01-17T09:23:23.897Z,14.13
2019-01-17T09:25:53.797Z,12.83
2019-01-17T09:28:23.411Z,13.93
2019-01-17T09:30:53.017Z,10.90
2019-01-17T09:33:22.774Z,15.20
2019-01-17T09:35:52.389Z,13.00
2019-01-17T09:38:22.009Z,17.60
2019-01-17T09:40:51.986Z,14.00
2019-01-17T09:43:21.607Z,16.80
2019-01-17T09:45:51.232Z,13.40
2019-01-17T09:48:20.916Z,17.80
2019-01-17T09:50:50.605Z,12.30
2019-01-17T09:53:20.758Z,13.80
2019-01-17T09:55:50.652Z,16.50
2019-01-17T09:58:20.594Z,16.63
2019-01-17T10:00:50.214Z,20.80
2019-01-17T10:03:19.917Z,16.60
2019-01-17T10:05:49.645Z,15.07
2019-01-17T10:08:19.301Z,17.13
2019-01-17T10:10:48.913Z,17.40
2019-01-17T10:13:18.830Z,14.00
2019-01-17T10:16:16.735Z,15.63
2019-01-17T10:19:24.005Z,14.23
2019-01-17T10:22:43.373Z,15.30
2019-01-17T10:26:02.420Z,12.83
2019-01-17T10:29:41.221Z,13.17
2019-01-17T10:32:32.193Z,12.57
2019-01-17T10:35:27.817Z,15.10
2019-01-17T10:38:31.209Z,11.43
2019-01-17T10:41:24.592Z,13.40
2019-01-17T10:44:05.871Z,12.93
2019-01-17T10:47:04.457Z,14.65
2019-01-17T10:50:09.043Z,21.17
2019-01-17T10:53:29.011Z,12.17
2019-01-17T10:56:55.701Z,27.03
2019-01-17T10:59:49.974Z,13.87
2019-01-17T11:02:56.365Z,11.60
2019-01-17T11:05:56.088Z,12.67
2019-01-17T11:09:01.633Z,10.47
2019-01-17T11:12:16.504Z,11.60
2019-01-17T11:15:17.463Z,11.73
2019-01-17T11:18:14.279Z,10.73
2019-01-17T11:21:26.417Z,12.77
2019-01-17T11:24:06.610Z,9.47
2019-01-17T11:27:10.672Z,11.50
2019-01-17T11:30:21.892Z,8.33
2019-01-17T11:33:24.477Z,8.77
2019-01-17T11:36:39.028Z,6.20
2019-01-17T11:39:38.119Z,10.60
2019-01-17T11:42:32.426Z,10.53
2019-01-17T11:45:56.386Z,11.00
2019-01-17T11:48:45.997Z,9.23
2019-01-17T11:51:53.778Z,8.30
2019-01-17T11:54:43.155Z,7.70
2019-01-17T11:57:29.950Z,10.90
2019-01-17T12:00:29.197Z,10.70
2019-01-17T12:03:12.010Z,8.63
2019-01-17T12:05:41.686Z,10.50
2019-01-17T12:08:11.414Z,13.10
2019-01-17T12:10:41.033Z,11.03
2019-01-17T12:13:10.641Z,9.93
2019-01-17T12:15:40.266Z,13.10
2019-01-17T12:18:09.957Z,10.57
2019-01-17T12:20:39.889Z,11.43
2019-01-17T12:23:09.568Z,11.13
2019-01-17T12:25:39.180Z,11.47
2019-01-17T12:28:08.812Z,12.03
2019-01-17T12:30:38.434Z,11.53
2019-01-17T12:33:08.037Z,10.50
2019-01-17T12:35:37.926Z,10.60
2019-01-17T12:38:07.599Z,9.50
2019-01-17T12:40:37.528Z,8.23
2019-01-17T12:43:07.141Z,7.37
2019-01-17T12:45:36.831Z,9.03
2019-01-17T12:48:06.944Z,8.90
2019-01-17T12:50:36.565Z,12.03
2019-01-17T12:53:06.207Z,10.20
2019-01-17T12:55:35.866Z,11.80
2019-01-17T12:58:05.498Z,9.57
2019-01-17T13:00:35.117Z,9.43
2019-01-17T13:03:04.733Z,11.17
2019-01-17T13:05:34.345Z,12.03
2019-01-17T13:08:04.405Z,10.70
2019-01-17T13:10:34.386Z,10.30
2019-01-17T13:13:04.004Z,11.90
2019-01-17T13:15:33.893Z,15.00
2019-01-17T13:18:03.584Z,12.20
2019-01-17T13:20:33.277Z,13.27
2019-01-17T13:23:02.897Z,10.00
2019-01-17T13:25:32.662Z,10.97
2019-01-17T13:28:02.452Z,8.43
2019-01-17T13:30:32.446Z,9.40
2019-01-17T13:33:02.134Z,6.23
2019-01-17T13:35:31.805Z,8.30
2019-01-17T13:38:01.423Z,6.23
2019-01-17T13:40:31.110Z,8.07
2019-01-17T13:43:00.744Z,5.47
2019-01-17T13:45:30.683Z,4.53
2019-01-17T13:48:00.429Z,3.30
2019-01-17T13:50:30.109Z,4.17
2019-01-17T13:52:59.741Z,7.40
2019-01-17T13:55:29.582Z,5.90
2019-01-17T13:57:59.189Z,4.57
2019-01-17T14:00:29.148Z,5.77
2019-01-17T14:02:58.756Z,2.87
2019-01-17T14:05:29.335Z,7.90
2019-01-17T14:08:00.094Z,6.13
2019-01-17T14:10:29.730Z,4.43
2019-01-17T14:12:59.414Z,3.73
2019-01-17T14:15:30.305Z,5.33
2019-01-17T14:17:59.955Z,7.57
2019-01-17T14:20:29.555Z,6.07
2019-01-17T14:22:59.174Z,8.03
2019-01-17T14:25:29.106Z,5.70
2019-01-17T14:27:58.800Z,4.90
2019-01-17T14:30:30.830Z,6.67
2019-01-17T14:33:00.564Z,3.67
2019-01-17T14:35:30.188Z,6.43
2019-01-17T14:37:59.789Z,5.37
2019-01-17T14:40:29.468Z,6.63
2019-01-17T14:42:59.077Z,6.13
2019-01-17T14:45:29.083Z,8.73
2019-01-17T14:47:58.689Z,7.77
2019-01-17T14:50:30.396Z,10.07
2019-01-17T14:53:00.265Z,9.80
2019-01-17T14:55:29.903Z,10.00
2019-01-17T14:57:59.512Z,6.57
2019-01-17T15:00:31.305Z,8.00
2019-01-17T15:03:01.118Z,10.60
2019-01-17T15:05:30.800Z,6.07
2019-01-17T15:08:00.506Z,6.73
2019-01-17T15:10:36.089Z,3.70
2019-01-17T15:13:05.881Z,6.47
2019-01-17T15:15:35.750Z,7.07
2019-01-17T15:18:06.616Z,8.23
2019-01-17T15:20:36.723Z,7.17
2019-01-17T15:23:08.215Z,8.30
2019-01-17T15:25:37.980Z,5.73
2019-01-17T15:28:07.605Z,8.90
2019-01-17T15:30:37.289Z,9.03
2019-01-17T15:33:07.241Z,7.23
2019-01-17T15:35:37.184Z,7.17
2019-01-17T15:38:06.789Z,4.73
2019-01-17T15:40:36.437Z,5.37
2019-01-17T15:43:07.889Z,9.00
2019-01-17T15:45:37.957Z,5.17
2019-01-17T15:48:07.780Z,5.50
2019-01-17T15:50:37.397Z,5.63
2019-01-17T15:53:07.006Z,5.77
2019-01-17T15:55:36.854Z,5.40
2019-01-17T15:58:06.533Z,6.97
2019-01-17T16:00:36.288Z,7.43
2019-01-17T16:03:05.893Z,8.17
2019-01-17T16:05:35.789Z,4.50
2019-01-17T16:08:05.565Z,4.97
2019-01-17T16:10:35.176Z,5.57
2019-01-17T16:13:04.818Z,3.27
2019-01-17T16:15:34.716Z,8.23
2019-01-17T16:18:04.472Z,8.07
2019-01-17T16:20:34.229Z,5.77
2019-01-17T16:23:04.389Z,5.17
2019-01-17T16:25:33.996Z,5.70
2019-01-17T16:28:03.623Z,8.30
2019-01-17T16:30:33.800Z,5.53
2019-01-17T16:33:03.499Z,3.70
2019-01-17T16:35:33.433Z,7.33
2019-01-17T16:38:03.056Z,5.90
2019-01-17T16:40:32.665Z,11.57
2019-01-17T16:43:02.586Z,4.50
2019-01-17T16:45:35.642Z,6.50
2019-01-17T16:48:03.500Z,5.00
2019-01-17T16:50:33.101Z,4.10
2019-01-17T16:53:02.726Z,6.63
2019-01-17T16:55:32.643Z,9.47
2019-01-17T16:58:02.376Z,4.90
2019-01-17T17:00:40.118Z,5.67
2019-01-17T17:03:09.881Z,5.00
2019-01-17T17:05:39.490Z,4.47
2019-01-17T17:08:09.171Z,6.87
2019-01-17T17:10:38.776Z,3.97
2019-01-17T17:13:08.423Z,8.77
2019-01-17T17:15:38.114Z,7.57
2019-01-17T17:18:07.806Z,8.97
2019-01-17T17:20:37.830Z,9.77
2019-01-17T17:23:07.453Z,7.83
2019-01-17T17:25:37.134Z,4.23
2019-01-17T17:28:06.773Z,6.87
2019-01-17T17:30:37.084Z,2.70
2019-01-17T17:33:06.773Z,5.00
2019-01-17T17:35:37.024Z,4.40
2019-01-17T17:38:07.463Z,6.37
2019-01-17T17:40:37.449Z,4.67
2019-01-17T17:43:07.553Z,8.40
2019-01-17T17:45:37.744Z,7.27
2019-01-17T17:48:07.428Z,10.17
2019-01-17T17:50:37.057Z,5.07
2019-01-17T17:53:06.724Z,4.00
2019-01-17T17:55:36.332Z,5.97
2019-01-17T17:58:06.295Z,6.50
2019-01-17T18:00:52.705Z,4.23
2019-01-17T18:03:22.317Z,4.13
2019-01-17T18:05:51.932Z,3.87
2019-01-17T18:08:21.576Z,2.43
2019-01-17T18:10:51.537Z,4.77
2019-01-17T18:13:21.146Z,4.47
2019-01-17T18:15:50.748Z,4.33
2019-01-17T18:18:20.545Z,5.07
2019-01-17T18:20:50.152Z,3.43
2019-01-17T18:23:19.760Z,5.93
2019-01-17T18:25:49.377Z,7.67
2019-01-17T18:28:19.000Z,7.93
2019-01-17T18:30:48.617Z,6.57
2019-01-17T18:33:18.316Z,6.60
2019-01-17T18:35:47.945Z,7.97
2019-01-17T18:38:17.566Z,6.70
2019-01-17T18:40:47.261Z,5.13
2019-01-17T18:43:16.872Z,6.20
2019-01-17T18:45:46.569Z,7.57
2019-01-17T18:48:16.167Z,6.43
2019-01-17T18:50:45.929Z,5.55
2019-01-17T18:53:15.855Z,7.30
2019-01-17T18:55:45.750Z,5.07
2019-01-17T18:58:15.786Z,3.57
2019-01-17T19:00:45.601Z,5.77
2019-01-17T19:03:15.285Z,7.70
2019-01-17T19:05:44.896Z,9.30
2019-01-17T19:08:14.750Z,9.00
2019-01-17T19:10:44.716Z,8.33
2019-01-17T19:13:15.864Z,6.70
2019-01-17T19:15:45.557Z,8.40
2019-01-17T19:18:15.170Z,13.23
2019-01-17T19:20:44.941Z,4.53
2019-01-17T19:23:14.929Z,4.73
2019-01-17T19:25:44.780Z,11.77
2019-01-17T19:28:14.493Z,15.57
2019-01-17T19:30:44.173Z,12.13
2019-01-17T19:33:13.842Z,11.70
2019-01-17T19:35:43.452Z,6.60
2019-01-17T19:38:14.117Z,5.03
2019-01-17T19:40:43.732Z,4.17
2019-01-17T19:43:13.429Z,5.53
2019-01-17T19:45:43.233Z,3.93
2019-01-17T19:48:12.848Z,5.93
2019-01-17T19:50:42.756Z,4.23
2019-01-17T19:53:12.584Z,6.37
2019-01-17T19:55:42.441Z,4.30
2019-01-17T19:58:12.131Z,3.53
2019-01-17T20:00:41.844Z,4.10
2019-01-17T20:03:11.883Z,2.10
2019-01-17T20:05:41.641Z,3.20
2019-01-17T20:08:11.329Z,4.13
2019-01-17T20:10:40.944Z,3.27
2019-01-17T20:13:10.684Z,3.00
2019-01-17T20:15:40.610Z,5.70
2019-01-17T20:18:10.760Z,5.90
2019-01-17T20:20:40.442Z,8.23
2019-01-17T20:23:10.249Z,3.67
2019-01-17T20:25:40.107Z,7.23
2019-01-17T20:28:09.878Z,6.50
2019-01-17T20:30:39.853Z,9.17
2019-01-17T20:33:09.706Z,9.03
2019-01-17T20:35:39.308Z,7.03
2019-01-17T20:38:10.254Z,2.40
2019-01-17T20:40:40.352Z,4.80
2019-01-17T20:43:10.209Z,2.27
2019-01-17T20:45:39.817Z,3.10
2019-01-17T20:48:10.556Z,3.47
2019-01-17T20:50:40.231Z,1.93
2019-01-17T20:53:09.844Z,4.03
2019-01-17T20:55:39.457Z,2.60
2019-01-17T20:58:09.067Z,2.37
2019-01-17T21:01:04.053Z,2.37
2019-01-17T21:03:35.251Z,1.80
2019-01-17T21:06:05.427Z,4.40
2019-01-17T21:08:35.043Z,4.80
2019-01-17T21:11:04.992Z,3.00
2019-01-17T21:13:34.614Z,2.13
2019-01-17T21:16:04.365Z,3.07
2019-01-17T21:18:33.989Z,3.50
2019-01-17T21:21:03.849Z,3.47
2019-01-17T21:23:33.477Z,2.60
2019-01-17T21:26:03.146Z,4.53
2019-01-17T21:28:32.845Z,4.23
2019-01-17T21:31:02.448Z,8.13
2019-01-17T21:33:32.141Z,5.00
2019-01-17T21:36:01.744Z,4.73
2019-01-17T21:38:31.369Z,7.77
2019-01-17T21:41:01.286Z,4.67
2019-01-17T21:43:30.897Z,4.97
2019-01-17T21:46:00.504Z,5.13
2019-01-17T21:48:30.118Z,4.47
2019-01-17T21:50:59.731Z,4.93
2019-01-17T21:53:29.516Z,4.93
2019-01-17T21:56:00.180Z,4.63
2019-01-17T21:58:30.101Z,6.90
2019-01-17T22:00:59.700Z,7.00
2019-01-17T22:03:29.794Z,2.73
2019-01-17T22:05:59.454Z,10.00
2019-01-17T22:08:29.061Z,6.73
2019-01-17T22:10:58.669Z,5.30
2019-01-17T22:13:28.382Z,5.27
2019-01-17T22:15:58.033Z,7.10
2019-01-17T22:18:27.768Z,5.87
2019-01-17T22:20:57.444Z,7.83
2019-01-17T22:23:27.111Z,6.03
2019-01-17T22:25:57.432Z,8.70
2019-01-17T22:28:27.133Z,8.03
2019-01-17T22:30:56.737Z,7.50
2019-01-17T22:33:26.347Z,9.77
2019-01-17T22:35:55.966Z,7.43
2019-01-17T22:38:25.577Z,8.27
2019-01-17T22:40:55.570Z,7.50
2019-01-17T22:43:26.493Z,7.20
2019-01-17T22:45:56.726Z,5.33
2019-01-17T22:48:26.382Z,4.43
2019-01-17T22:50:55.997Z,8.13
2019-01-17T22:53:26.575Z,5.70
2019-01-17T22:55:56.197Z,6.30
2019-01-17T22:58:25.813Z,7.00
2019-01-17T23:01:21.653Z,7.57
2019-01-17T23:03:52.251Z,7.03
2019-01-17T23:06:22.188Z,5.43
2019-01-17T23:08:51.793Z,7.77
2019-01-17T23:11:21.493Z,6.37
2019-01-17T23:13:51.246Z,6.00
2019-01-17T23:16:20.853Z,5.40
2019-01-17T23:18:50.920Z,8.23
2019-01-17T23:21:21.634Z,10.73
2019-01-17T23:23:51.411Z,7.33
2019-01-17T23:26:21.104Z,7.47
2019-01-17T23:28:50.737Z,6.27
2019-01-17T23:31:20.442Z,4.87
2019-01-17T23:33:50.137Z,7.10
2019-01-17T23:36:19.847Z,5.87
2019-01-17T23:38:49.656Z,4.97
2019-01-17T23:41:19.280Z,7.20
2019-01-17T23:43:48.885Z,4.60
2019-01-17T23:46:18.501Z,3.63
2019-01-17T23:48:48.409Z,5.13
2019-01-17T23:51:18.016Z,6.17
2019-01-17T23:53:47.696Z,6.40
2019-01-17T23:56:17.309Z,4.97
2019-01-17T23:58:47.036Z,5.73
